createdAt,value
2019-02-07T00:00:44.315Z,86.23
2019-02-07T00:03:11.633Z,86.07
2019-02-07T00:05:39.923Z,86.09
2019-02-07T00:08:07.040Z,85.99
2019-02-07T00:10:36.333Z,85.92
2019-02-07T00:13:03.677Z,85.86
2019-02-07T00:15:36.541Z,85.88
2019-02-07T00:18:03.564Z,85.72
2019-02-07T00:20:30.672Z,85.76
2019-02-07T00:22:57.787Z,85.76
2019-02-07T00:25:24.918Z,85.68
2019-02-07T00:27:52.555Z,85.66
2019-02-07T00:30:20.149Z,85.69
2019-02-07T00:32:47.252Z,85.71
2019-02-07T00:35:14.349Z,85.75
2019-02-07T00:37:41.445Z,85.68
2019-02-07T00:40:10.843Z,85.64
2019-02-07T00:42:39.952Z,85.71
2019-02-07T00:45:10.136Z,85.55
2019-02-07T00:47:39.030Z,85.49
2019-02-07T00:50:06.793Z,85.54
2019-02-07T00:52:33.879Z,85.65
2019-02-07T00:55:02.767Z,85.69
2019-02-07T00:57:30.970Z,85.74
2019-02-07T00:59:58.465Z,85.65
2019-02-07T01:02:26.662Z,85.66
2019-02-07T01:04:53.756Z,85.66
2019-02-07T01:07:20.987Z,85.57
2019-02-07T01:09:48.273Z,85.71
2019-02-07T01:12:17.179Z,85.67
2019-02-07T01:14:44.770Z,85.54
2019-02-07T01:17:12.074Z,85.54
2019-02-07T01:19:39.369Z,85.49
2019-02-07T01:22:06.474Z,85.55
2019-02-07T01:24:33.894Z,85.49
2019-02-07T01:27:03.808Z,85.60
2019-02-07T01:29:30.944Z,85.64
2019-02-07T01:31:58.036Z,85.58
2019-02-07T01:34:25.431Z,85.61
2019-02-07T01:36:52.518Z,85.55
2019-02-07T01:39:19.706Z,85.64
2019-02-07T01:41:46.807Z,85.61
2019-02-07T01:44:13.997Z,85.59
2019-02-07T01:46:41.099Z,85.45
2019-02-07T01:49:08.188Z,85.53
2019-02-07T01:51:35.283Z,85.62
2019-02-07T01:54:03.895Z,85.65
2019-02-07T01:56:30.972Z,85.63
2019-02-07T01:58:58.069Z,85.62
2019-02-07T02:01:25.163Z,85.51
2019-02-07T02:03:52.244Z,85.53
2019-02-07T02:06:19.363Z,85.57
2019-02-07T02:08:46.468Z,85.57
2019-02-07T02:11:13.852Z,85.43
2019-02-07T02:13:40.942Z,85.42
2019-02-07T02:16:08.036Z,85.50
2019-02-07T02:18:35.141Z,85.62
2019-02-07T02:21:02.226Z,85.69
2019-02-07T02:23:29.313Z,85.62
2019-02-07T02:25:56.466Z,85.67
2019-02-07T02:28:23.952Z,85.63
2019-02-07T02:30:51.103Z,85.41
2019-02-07T02:33:18.197Z,85.39
2019-02-07T02:35:45.273Z,85.49
2019-02-07T02:38:12.367Z,85.57
2019-02-07T02:40:39.460Z,85.59
2019-02-07T02:43:06.568Z,85.55
2019-02-07T02:45:37.650Z,85.52
2019-02-07T02:48:03.162Z,85.51
2019-02-07T02:50:30.248Z,85.58
2019-02-07T02:52:57.365Z,85.54
2019-02-07T02:55:31.174Z,85.48
2019-02-07T02:57:58.372Z,85.48
2019-02-07T03:00:34.999Z,85.52
2019-02-07T03:03:33.867Z,85.54
2019-02-07T03:06:32.592Z,85.44
2019-02-07T03:09:19.857Z,85.49
2019-02-07T03:12:15.776Z,85.49
2019-02-07T03:15:01.558Z,85.50
2019-02-07T03:17:57.650Z,85.33
2019-02-07T03:20:53.280Z,85.34
2019-02-07T03:23:40.068Z,85.46
2019-02-07T03:26:25.675Z,85.53
2019-02-07T03:29:16.315Z,85.66
2019-02-07T03:32:21.046Z,85.70
2019-02-07T03:34:54.971Z,85.61
2019-02-07T03:37:50.849Z,85.56
2019-02-07T03:40:40.179Z,85.68
2019-02-07T03:43:42.346Z,85.48
2019-02-07T03:46:27.854Z,85.68
2019-02-07T03:49:02.893Z,85.90
2019-02-07T03:51:49.616Z,85.76
2019-02-07T03:54:34.936Z,85.60
2019-02-07T03:57:27.733Z,85.85
2019-02-07T04:00:26.523Z,85.70
2019-02-07T04:03:29.212Z,85.62
2019-02-07T04:06:14.494Z,85.70
2019-02-07T04:09:00.969Z,85.73
2019-02-07T04:11:41.823Z,85.83
2019-02-07T04:14:44.697Z,85.80
2019-02-07T04:17:35.148Z,85.68
2019-02-07T04:20:31.625Z,85.69
2019-02-07T04:23:25.566Z,85.66
2019-02-07T04:26:12.221Z,85.62
2019-02-07T04:29:01.848Z,85.69
2019-02-07T04:31:57.519Z,85.72
2019-02-07T04:34:46.823Z,85.56
2019-02-07T04:37:33.490Z,85.64
2019-02-07T04:40:23.743Z,85.64
2019-02-07T04:43:25.342Z,85.60
2019-02-07T04:46:27.529Z,85.71
2019-02-07T04:49:04.145Z,85.70
2019-02-07T04:51:41.842Z,85.64
2019-02-07T04:54:28.557Z,85.58
2019-02-07T04:57:24.556Z,85.92
2019-02-07T05:00:10.281Z,85.82
2019-02-07T05:02:57.148Z,85.73
2019-02-07T05:05:42.686Z,85.75
2019-02-07T05:08:49.655Z,85.75
2019-02-07T05:11:28.698Z,85.79
2019-02-07T05:14:14.224Z,85.90
2019-02-07T05:17:11.941Z,85.91
2019-02-07T05:20:01.589Z,85.97
2019-02-07T05:22:54.184Z,85.82
2019-02-07T05:25:39.599Z,85.60
2019-02-07T05:28:32.239Z,85.54
2019-02-07T05:31:22.059Z,85.67
2019-02-07T05:34:14.477Z,85.67
2019-02-07T05:37:05.010Z,85.62
2019-02-07T05:39:55.718Z,85.77
2019-02-07T05:42:54.254Z,85.83
2019-02-07T05:45:46.709Z,86.03
2019-02-07T05:48:32.524Z,86.24
2019-02-07T05:51:37.519Z,86.01
2019-02-07T05:54:36.568Z,86.05
2019-02-07T05:57:32.562Z,86.19
2019-02-07T06:00:31.193Z,86.11
2019-02-07T06:03:20.523Z,86.09
2019-02-07T06:06:09.468Z,85.92
2019-02-07T06:09:11.252Z,85.95
2019-02-07T06:11:56.709Z,86.11
2019-02-07T06:14:58.697Z,86.06
2019-02-07T06:17:41.525Z,86.09
2019-02-07T06:20:22.763Z,86.27
2019-02-07T06:23:16.577Z,86.10
2019-02-07T06:26:02.031Z,85.97
2019-02-07T06:28:57.822Z,86.11
2019-02-07T06:31:39.188Z,86.09
2019-02-07T06:34:32.314Z,86.04
2019-02-07T06:37:17.986Z,86.19
2019-02-07T06:40:04.651Z,86.13
2019-02-07T06:42:48.435Z,86.21
2019-02-07T06:45:33.893Z,86.20
2019-02-07T06:48:19.399Z,86.05
2019-02-07T06:51:09.435Z,86.00
2019-02-07T06:53:54.813Z,85.99
2019-02-07T06:56:56.904Z,85.95
2019-02-07T06:59:37.544Z,85.98
2019-02-07T07:02:19.524Z,86.05
2019-02-07T07:04:57.857Z,86.13
2019-02-07T07:07:44.923Z,86.12
2019-02-07T07:10:29.413Z,86.14
2019-02-07T07:13:18.250Z,86.09
2019-02-07T07:16:02.151Z,86.00
2019-02-07T07:18:48.918Z,85.98
2019-02-07T07:21:44.667Z,85.94
2019-02-07T07:24:26.192Z,86.03
2019-02-07T07:27:08.676Z,85.96
2019-02-07T07:30:01.322Z,85.94
2019-02-07T07:32:48.545Z,85.92
2019-02-07T07:35:56.566Z,85.95
2019-02-07T07:38:55.255Z,86.00
2019-02-07T07:41:49.028Z,85.96
2019-02-07T07:44:55.093Z,85.93
2019-02-07T07:47:46.522Z,85.90
2019-02-07T07:50:37.407Z,85.88
2019-02-07T07:53:33.333Z,85.97
2019-02-07T07:56:27.738Z,85.97
2019-02-07T07:59:29.813Z,85.99
2019-02-07T08:02:14.563Z,86.01
2019-02-07T08:04:57.296Z,86.00
2019-02-07T08:07:52.739Z,86.06
2019-02-07T08:10:48.604Z,86.09
2019-02-07T08:13:31.890Z,86.09
2019-02-07T08:16:32.825Z,86.12
2019-02-07T08:19:22.474Z,86.14
2019-02-07T08:22:33.752Z,86.15
2019-02-07T08:25:31.499Z,86.17
2019-02-07T08:28:20.237Z,86.18
2019-02-07T08:31:11.582Z,86.19
2019-02-07T08:34:01.265Z,86.21
2019-02-07T08:36:52.603Z,86.22
2019-02-07T08:39:38.245Z,86.25
2019-02-07T08:42:39.082Z,86.29
2019-02-07T08:45:26.255Z,86.25
2019-02-07T08:48:15.398Z,86.25
2019-02-07T08:51:01.038Z,86.25
2019-02-07T08:54:05.817Z,86.30
2019-02-07T08:56:58.704Z,86.31
2019-02-07T08:59:46.610Z,86.29
2019-02-07T09:02:39.216Z,86.29
2019-02-07T09:05:21.097Z,86.31
2019-02-07T09:08:12.691Z,86.30
2019-02-07T09:11:03.580Z,86.29
2019-02-07T09:13:57.754Z,86.30
2019-02-07T09:16:43.038Z,86.34
2019-02-07T09:19:29.713Z,86.29
2019-02-07T09:22:27.313Z,86.26
2019-02-07T09:25:12.634Z,86.30
2019-02-07T09:28:07.198Z,86.25
2019-02-07T09:30:50.782Z,86.25
2019-02-07T09:33:36.429Z,86.29
2019-02-07T09:36:35.244Z,86.33
2019-02-07T09:39:25.900Z,86.34
2019-02-07T09:42:27.615Z,86.33
2019-02-07T09:45:11.945Z,86.21
2019-02-07T09:47:57.517Z,86.16
2019-02-07T09:50:39.764Z,86.21
2019-02-07T09:53:41.652Z,86.17
2019-02-07T09:56:34.224Z,86.18
2019-02-07T09:59:22.685Z,86.17
2019-02-07T10:02:28.475Z,86.11
2019-02-07T10:05:21.661Z,86.11
2019-02-07T10:08:08.151Z,86.05
2019-02-07T10:11:13.216Z,85.97
2019-02-07T10:14:04.463Z,85.95
2019-02-07T10:17:09.288Z,85.94
2019-02-07T10:19:53.448Z,86.01
2019-02-07T10:22:40.495Z,86.14
2019-02-07T10:25:30.377Z,86.10
2019-02-07T10:28:28.978Z,86.06
2019-02-07T10:31:26.606Z,86.07
2019-02-07T10:34:26.517Z,86.00
2019-02-07T10:37:16.656Z,86.00
2019-02-07T10:40:02.241Z,86.01
2019-02-07T10:42:50.956Z,85.97
2019-02-07T10:45:41.721Z,85.91
2019-02-07T10:48:27.444Z,85.97
2019-02-07T10:51:15.129Z,86.04
2019-02-07T10:53:55.215Z,85.99
2019-02-07T10:56:43.056Z,85.99
2019-02-07T10:59:29.068Z,86.08
2019-02-07T11:02:18.548Z,86.12
2019-02-07T11:05:07.677Z,86.09
2019-02-07T11:08:01.366Z,86.12
2019-02-07T11:10:48.024Z,86.08
2019-02-07T11:13:37.589Z,86.05
2019-02-07T11:16:41.947Z,86.04
2019-02-07T11:19:31.001Z,86.02
2019-02-07T11:22:11.668Z,86.00
2019-02-07T11:25:00.100Z,85.91
2019-02-07T11:27:54.675Z,85.88
2019-02-07T11:30:41.284Z,85.87
2019-02-07T11:33:21.720Z,85.80
2019-02-07T11:36:08.018Z,85.82
2019-02-07T11:39:00.540Z,85.85
2019-02-07T11:41:41.735Z,85.86
2019-02-07T11:44:29.504Z,85.80
2019-02-07T11:47:16.095Z,85.77
2019-02-07T11:50:19.908Z,85.74
2019-02-07T11:53:06.290Z,85.82
2019-02-07T11:55:54.715Z,85.80
2019-02-07T11:58:40.116Z,85.76
2019-02-07T12:01:23.190Z,85.74
2019-02-07T12:04:00.025Z,85.74
2019-02-07T12:06:49.498Z,85.73
2019-02-07T12:09:38.851Z,85.72
2019-02-07T12:12:24.344Z,85.66
2019-02-07T12:15:31.992Z,85.66
2019-02-07T12:18:20.788Z,85.73
2019-02-07T12:21:09.356Z,85.71
2019-02-07T12:24:02.115Z,85.68
2019-02-07T12:26:49.871Z,85.63
2019-02-07T12:29:43.800Z,85.59
2019-02-07T12:32:42.819Z,85.59
2019-02-07T12:35:39.196Z,85.58
2019-02-07T12:38:38.421Z,85.54
2019-02-07T12:41:31.324Z,85.50
2019-02-07T12:44:17.315Z,85.46
2019-02-07T12:47:02.877Z,85.45
2019-02-07T12:49:52.886Z,85.50
2019-02-07T12:52:37.859Z,85.56
2019-02-07T12:55:12.267Z,85.54
2019-02-07T12:57:56.858Z,85.52
2019-02-07T13:00:53.631Z,85.51
2019-02-07T13:03:56.174Z,85.53
2019-02-07T13:06:43.770Z,85.52
2019-02-07T13:09:44.694Z,85.54
2019-02-07T13:12:25.525Z,85.60
2019-02-07T13:15:30.680Z,85.54
2019-02-07T13:18:18.595Z,85.49
2019-02-07T13:21:09.479Z,85.47
2019-02-07T13:23:50.903Z,85.48
2019-02-07T13:26:29.956Z,85.44
2019-02-07T13:29:11.610Z,85.46
2019-02-07T13:32:01.559Z,85.49
2019-02-07T13:34:59.945Z,85.54
2019-02-07T13:37:47.510Z,85.54
2019-02-07T13:40:37.231Z,85.51
2019-02-07T13:43:31.030Z,85.51
2019-02-07T13:46:23.687Z,85.50
2019-02-07T13:49:16.845Z,85.52
2019-02-07T13:52:27.835Z,85.52
2019-02-07T13:55:11.137Z,85.53
2019-02-07T13:58:09.366Z,85.47
2019-02-07T14:00:47.793Z,85.48
2019-02-07T14:03:34.821Z,85.50
2019-02-07T14:06:23.649Z,85.54
2019-02-07T14:09:31.281Z,85.52
2019-02-07T14:12:24.011Z,85.56
2019-02-07T14:15:08.933Z,85.58
2019-02-07T14:18:04.846Z,85.60
2019-02-07T14:20:53.128Z,85.59
2019-02-07T14:23:36.556Z,85.55
2019-02-07T14:26:27.771Z,85.53
2019-02-07T14:29:12.620Z,85.47
2019-02-07T14:32:09.474Z,85.43
2019-02-07T14:34:56.750Z,85.41
2019-02-07T14:37:52.931Z,85.37
2019-02-07T14:40:42.296Z,85.33
2019-02-07T14:43:21.152Z,85.38
2019-02-07T14:46:13.395Z,85.43
2019-02-07T14:48:46.437Z,85.46
2019-02-07T14:51:13.540Z,85.42
2019-02-07T14:53:42.713Z,85.42
2019-02-07T14:56:09.801Z,85.42
2019-02-07T14:58:38.741Z,85.43
2019-02-07T15:01:07.349Z,85.51
2019-02-07T15:03:35.539Z,85.55
2019-02-07T15:06:02.800Z,85.55
2019-02-07T15:08:29.889Z,85.53
2019-02-07T15:10:56.982Z,85.52
2019-02-07T15:13:24.085Z,85.55
2019-02-07T15:15:52.372Z,85.55
2019-02-07T15:18:19.772Z,85.56
2019-02-07T15:20:46.876Z,85.60
2019-02-07T15:23:13.971Z,85.62
2019-02-07T15:25:42.263Z,85.66
2019-02-07T15:28:11.245Z,85.65
2019-02-07T15:30:40.206Z,85.68
2019-02-07T15:33:07.335Z,85.72
2019-02-07T15:35:37.270Z,85.74
2019-02-07T15:38:04.446Z,85.74
2019-02-07T15:40:31.538Z,85.73
2019-02-07T15:43:00.245Z,85.73
2019-02-07T15:45:27.894Z,85.70
2019-02-07T15:47:56.084Z,85.69
2019-02-07T15:50:25.250Z,85.75
2019-02-07T15:52:56.873Z,85.76
2019-02-07T15:55:24.061Z,85.72
2019-02-07T15:57:53.130Z,85.68
2019-02-07T16:00:46.959Z,85.65
2019-02-07T16:03:21.316Z,85.65
2019-02-07T16:05:49.599Z,85.67
2019-02-07T16:08:16.810Z,85.61
2019-02-07T16:10:43.902Z,85.59
2019-02-07T16:13:10.995Z,85.61
2019-02-07T16:15:39.979Z,85.56
2019-02-07T16:18:07.587Z,85.55
2019-02-07T16:20:36.100Z,85.56
2019-02-07T16:23:05.100Z,85.55
2019-02-07T16:25:35.427Z,85.50
2019-02-07T16:28:04.240Z,85.51
2019-02-07T16:30:37.037Z,85.52
2019-02-07T16:33:05.264Z,85.53
2019-02-07T16:35:33.276Z,85.54
2019-02-07T16:38:03.463Z,85.53
2019-02-07T16:40:32.546Z,85.52
2019-02-07T16:43:01.969Z,85.51
2019-02-07T16:45:36.579Z,85.56
2019-02-07T16:48:06.638Z,85.56
2019-02-07T16:50:59.683Z,85.60
2019-02-07T16:53:22.394Z,85.59
2019-02-07T16:55:52.499Z,85.65
2019-02-07T16:58:22.503Z,85.61
2019-02-07T17:00:51.977Z,85.62
2019-02-07T17:03:24.040Z,85.54
2019-02-07T17:06:03.479Z,85.55
2019-02-07T17:08:32.622Z,85.56
2019-02-07T17:11:01.032Z,85.57
2019-02-07T17:13:28.418Z,85.57
2019-02-07T17:15:58.460Z,85.59
2019-02-07T17:18:27.996Z,85.59
2019-02-07T17:21:11.225Z,85.78
2019-02-07T17:23:40.671Z,85.89
2019-02-07T17:26:08.271Z,85.90
2019-02-07T17:28:38.553Z,85.92
2019-02-07T17:31:11.025Z,85.81
2019-02-07T17:33:46.876Z,85.70
2019-02-07T17:36:17.127Z,85.68
2019-02-07T17:38:45.702Z,85.65
2019-02-07T17:41:16.050Z,85.80
2019-02-07T17:43:43.253Z,85.71
2019-02-07T17:46:12.943Z,85.69
2019-02-07T17:48:40.707Z,85.91
2019-02-07T17:51:07.873Z,85.96
2019-02-07T17:53:35.201Z,85.91
2019-02-07T17:56:04.899Z,86.01
2019-02-07T17:58:32.107Z,85.87
2019-02-07T18:01:04.099Z,85.90
2019-02-07T18:03:32.035Z,85.79
2019-02-07T18:05:59.146Z,85.73
2019-02-07T18:08:29.616Z,85.74
2019-02-07T18:10:56.803Z,85.75
2019-02-07T18:13:25.910Z,85.86
2019-02-07T18:15:57.530Z,85.89
2019-02-07T18:18:28.007Z,85.98
2019-02-07T18:20:59.418Z,85.98
2019-02-07T18:23:31.065Z,85.93
2019-02-07T18:25:58.466Z,85.98
2019-02-07T18:28:30.142Z,86.12
2019-02-07T18:31:06.049Z,86.23
2019-02-07T18:33:33.210Z,86.21
2019-02-07T18:36:04.821Z,86.30
2019-02-07T18:38:32.118Z,86.29
2019-02-07T18:41:03.838Z,86.36
2019-02-07T18:43:33.227Z,86.58
2019-02-07T18:46:06.168Z,86.41
2019-02-07T18:48:36.146Z,86.21
2019-02-07T18:51:08.159Z,86.23
2019-02-07T18:53:38.439Z,86.24
2019-02-07T18:56:05.534Z,86.14
2019-02-07T18:58:32.660Z,86.29
2019-02-07T19:00:59.754Z,86.43
2019-02-07T19:03:26.910Z,86.37
2019-02-07T19:05:53.980Z,86.40
2019-02-07T19:08:21.694Z,86.53
2019-02-07T19:10:48.803Z,86.44
2019-02-07T19:13:16.144Z,86.41
2019-02-07T19:15:46.335Z,86.70
2019-02-07T19:18:13.434Z,86.58
2019-02-07T19:20:40.631Z,86.56
2019-02-07T19:23:08.046Z,86.49
2019-02-07T19:25:35.251Z,86.80
2019-02-07T19:28:02.973Z,86.98
2019-02-07T19:30:30.902Z,86.94
2019-02-07T19:32:58.563Z,86.67
2019-02-07T19:35:25.696Z,86.69
2019-02-07T19:37:54.770Z,87.27
2019-02-07T19:40:21.980Z,87.03
2019-02-07T19:42:49.078Z,86.86
2019-02-07T19:45:17.219Z,87.01
2019-02-07T19:47:44.345Z,86.96
2019-02-07T19:50:14.588Z,86.72
2019-02-07T19:52:41.780Z,86.72
2019-02-07T19:55:11.710Z,87.13
2019-02-07T19:57:38.807Z,87.22
2019-02-07T20:00:09.675Z,87.30
2019-02-07T20:02:36.774Z,87.56
2019-02-07T20:05:05.437Z,87.79
2019-02-07T20:07:32.535Z,87.74
2019-02-07T20:09:59.832Z,87.60
2019-02-07T20:12:27.175Z,87.68
2019-02-07T20:14:54.339Z,87.54
2019-02-07T20:17:24.228Z,87.62
2019-02-07T20:19:51.627Z,87.59
2019-02-07T20:22:20.465Z,87.90
2019-02-07T20:24:47.731Z,88.11
2019-02-07T20:27:14.906Z,87.86
2019-02-07T20:29:42.130Z,87.81
2019-02-07T20:32:13.048Z,87.68
2019-02-07T20:34:44.287Z,87.76
2019-02-07T20:37:13.944Z,87.74
2019-02-07T20:39:45.540Z,87.75
2019-02-07T20:42:15.917Z,88.11
2019-02-07T20:44:48.771Z,87.90
2019-02-07T20:47:16.068Z,87.55
2019-02-07T20:49:43.166Z,87.27
2019-02-07T20:52:13.339Z,87.30
2019-02-07T20:54:40.682Z,87.70
2019-02-07T20:57:09.112Z,87.50
2019-02-07T20:59:36.475Z,87.74
2019-02-07T21:02:12.080Z,87.76
2019-02-07T21:04:39.198Z,87.80
2019-02-07T21:07:06.859Z,87.72
2019-02-07T21:09:34.631Z,87.89
2019-02-07T21:12:01.821Z,87.86
2019-02-07T21:14:30.094Z,87.84
2019-02-07T21:16:59.859Z,87.89
2019-02-07T21:19:30.204Z,87.79
2019-02-07T21:21:59.694Z,87.71
2019-02-07T21:24:28.656Z,87.95
2019-02-07T21:26:59.237Z,88.11
2019-02-07T21:29:31.433Z,88.04
2019-02-07T21:32:13.192Z,88.04
2019-02-07T21:34:40.411Z,88.08
2019-02-07T21:37:12.343Z,88.29
2019-02-07T21:39:42.748Z,88.10
2019-02-07T21:42:12.171Z,88.03
2019-02-07T21:44:39.277Z,87.97
2019-02-07T21:47:06.505Z,87.89
2019-02-07T21:49:33.625Z,87.92
2019-02-07T21:52:05.756Z,88.01
2019-02-07T21:54:35.637Z,87.87
2019-02-07T21:57:04.547Z,87.75
2019-02-07T21:59:33.868Z,87.90
2019-02-07T22:02:00.957Z,87.73
2019-02-07T22:04:28.249Z,87.78
2019-02-07T22:07:02.425Z,87.95
2019-02-07T22:09:33.870Z,87.98
2019-02-07T22:12:06.152Z,88.14
2019-02-07T22:14:33.317Z,88.09
2019-02-07T22:17:09.401Z,88.03
2019-02-07T22:19:41.655Z,88.02
2019-02-07T22:22:10.266Z,88.16
2019-02-07T22:24:43.644Z,88.02
2019-02-07T22:27:10.906Z,87.84
2019-02-07T22:30:04.264Z,87.85
2019-02-07T22:32:36.837Z,87.84
2019-02-07T22:35:06.187Z,87.75
2019-02-07T22:37:37.987Z,87.64
2019-02-07T22:40:07.573Z,87.58
2019-02-07T22:42:37.420Z,87.68
2019-02-07T22:45:08.437Z,87.65
2019-02-07T22:47:37.815Z,87.72
2019-02-07T22:50:11.789Z,87.75
2019-02-07T22:52:39.654Z,87.71
2019-02-07T22:55:07.208Z,87.70
2019-02-07T22:57:34.380Z,87.73
2019-02-07T23:00:01.896Z,87.70
2019-02-07T23:02:29.297Z,87.59
2019-02-07T23:04:59.069Z,87.72
2019-02-07T23:07:30.136Z,87.97
2019-02-07T23:09:59.915Z,88.13
2019-02-07T23:12:29.979Z,88.06
2019-02-07T23:15:00.330Z,88.00
2019-02-07T23:17:27.676Z,87.94
2019-02-07T23:20:03.292Z,87.86
2019-02-07T23:22:31.691Z,88.02
2019-02-07T23:24:59.783Z,88.03
2019-02-07T23:27:31.253Z,88.00
2019-02-07T23:29:59.591Z,87.90
2019-02-07T23:32:34.019Z,88.00
2019-02-07T23:35:03.715Z,87.95
2019-02-07T23:37:36.402Z,88.03
2019-02-07T23:40:09.871Z,88.06
2019-02-07T23:42:42.981Z,88.06
2019-02-07T23:45:12.094Z,88.06
2019-02-07T23:47:39.651Z,88.00
2019-02-07T23:50:09.899Z,87.97
2019-02-07T23:52:40.746Z,87.95
2019-02-07T23:55:11.109Z,87.96
2019-02-07T23:57:41.869Z,88.00
